sensor_id;sensor_type;location;lat;lon;timestamp;P1;durP1;ratioP1;P2;durP2;ratioP2
74124;SDS011;62475;52.192;5.396;2023-09-30T00:00:17;11.73;;;4.10;;
74124;SDS011;62475;52.192;5.396;2023-09-30T00:02:42;12.02;;;3.15;;
74124;SDS011;62475;52.192;5.396;2023-09-30T00:05:08;12.63;;;3.78;;
74124;SDS011;62475;52.192;5.396;2023-09-30T00:07:34;8.55;;;3.90;;
74124;SDS011;62475;52.192;5.396;2023-09-30T00:09:59;11.77;;;3.67;;
74124;SDS011;62475;52.192;5.396;2023-09-30T00:12:24;11.20;;;3.25;;
74124;SDS011;62475;52.192;5.396;2023-09-30T00:14:50;11.37;;;3.77;;
74124;SDS011;62475;52.192;5.396;2023-09-30T00:17:15;10.27;;;3.27;;
74124;SDS011;62475;52.192;5.396;2023-09-30T00:19:40;12.90;;;4.10;;
74124;SDS011;62475;52.192;5.396;2023-09-30T00:22:05;10.13;;;3.77;;
74124;SDS011;62475;52.192;5.396;2023-09-30T00:24:30;11.23;;;4.10;;
74124;SDS011;62475;52.192;5.396;2023-09-30T00:26:56;13.77;;;4.50;;
74124;SDS011;62475;52.192;5.396;2023-09-30T00:29:21;12.25;;;4.63;;
74124;SDS011;62475;52.192;5.396;2023-09-30T00:31:46;15.65;;;4.22;;
74124;SDS011;62475;52.192;5.396;2023-09-30T00:34:12;12.13;;;4.35;;
74124;SDS011;62475;52.192;5.396;2023-09-30T00:36:38;13.90;;;5.07;;
74124;SDS011;62475;52.192;5.396;2023-09-30T00:39:03;8.90;;;4.03;;
74124;SDS011;62475;52.192;5.396;2023-09-30T00:41:29;13.07;;;4.35;;
74124;SDS011;62475;52.192;5.396;2023-09-30T00:43:54;10.43;;;4.47;;
74124;SDS011;62475;52.192;5.396;2023-09-30T00:46:32;20.67;;;4.10;;
74124;SDS011;62475;52.192;5.396;2023-09-30T00:48:59;12.05;;;4.78;;
74124;SDS011;62475;52.192;5.396;2023-09-30T00:51:24;9.77;;;4.70;;
74124;SDS011;62475;52.192;5.396;2023-09-30T00:53:53;11.48;;;4.55;;
74124;SDS011;62475;52.192;5.396;2023-09-30T00:56:19;11.70;;;4.50;;
74124;SDS011;62475;52.192;5.396;2023-09-30T00:58:47;9.05;;;4.60;;
74124;SDS011;62475;52.192;5.396;2023-09-30T01:01:12;9.10;;;4.47;;
74124;SDS011;62475;52.192;5.396;2023-09-30T01:03:37;12.20;;;4.47;;
74124;SDS011;62475;52.192;5.396;2023-09-30T01:06:03;10.90;;;4.30;;
74124;SDS011;62475;52.192;5.396;2023-09-30T01:08:28;13.05;;;4.50;;
74124;SDS011;62475;52.192;5.396;2023-09-30T01:10:54;10.25;;;4.38;;
74124;SDS011;62475;52.192;5.396;2023-09-30T01:13:20;9.48;;;4.00;;
74124;SDS011;62475;52.192;5.396;2023-09-30T01:15:45;9.60;;;3.47;;
74124;SDS011;62475;52.192;5.396;2023-09-30T01:18:12;11.68;;;4.60;;
74124;SDS011;62475;52.192;5.396;2023-09-30T01:20:37;15.30;;;5.27;;
74124;SDS011;62475;52.192;5.396;2023-09-30T01:23:02;17.60;;;5.22;;
74124;SDS011;62475;52.192;5.396;2023-09-30T01:25:28;8.43;;;4.15;;
74124;SDS011;62475;52.192;5.396;2023-09-30T01:27:54;11.37;;;5.20;;
74124;SDS011;62475;52.192;5.396;2023-09-30T01:30:19;10.70;;;4.30;;
74124;SDS011;62475;52.192;5.396;2023-09-30T01:32:44;11.02;;;5.03;;
74124;SDS011;62475;52.192;5.396;2023-09-30T01:35:10;11.82;;;4.85;;
74124;SDS011;62475;52.192;5.396;2023-09-30T01:37:35;9.53;;;4.87;;
74124;SDS011;62475;52.192;5.396;2023-09-30T01:40:00;13.43;;;5.38;;
74124;SDS011;62475;52.192;5.396;2023-09-30T01:42:25;13.60;;;5.70;;
74124;SDS011;62475;52.192;5.396;2023-09-30T01:44:53;16.60;;;5.43;;
74124;SDS011;62475;52.192;5.396;2023-09-30T01:47:19;13.18;;;4.90;;
74124;SDS011;62475;52.192;5.396;2023-09-30T01:49:44;15.87;;;5.90;;
74124;SDS011;62475;52.192;5.396;2023-09-30T01:52:09;16.83;;;5.93;;
74124;SDS011;62475;52.192;5.396;2023-09-30T01:54:35;11.57;;;5.55;;
74124;SDS011;62475;52.192;5.396;2023-09-30T01:57:00;14.88;;;5.60;;
74124;SDS011;62475;52.192;5.396;2023-09-30T01:59:28;17.73;;;5.97;;
74124;SDS011;62475;52.192;5.396;2023-09-30T02:01:53;15.50;;;6.80;;
74124;SDS011;62475;52.192;5.396;2023-09-30T02:04:19;14.73;;;6.10;;
74124;SDS011;62475;52.192;5.396;2023-09-30T02:06:44;15.20;;;5.97;;
74124;SDS011;62475;52.192;5.396;2023-09-30T02:09:09;18.37;;;5.47;;
74124;SDS011;62475;52.192;5.396;2023-09-30T02:11:35;16.23;;;6.72;;
74124;SDS011;62475;52.192;5.396;2023-09-30T02:14:01;12.65;;;6.07;;
74124;SDS011;62475;52.192;5.396;2023-09-30T02:16:27;19.92;;;6.53;;
74124;SDS011;62475;52.192;5.396;2023-09-30T02:18:52;16.40;;;6.47;;
74124;SDS011;62475;52.192;5.396;2023-09-30T02:21:18;17.13;;;6.18;;
74124;SDS011;62475;52.192;5.396;2023-09-30T02:23:43;15.13;;;6.07;;
74124;SDS011;62475;52.192;5.396;2023-09-30T02:26:12;12.73;;;5.95;;
74124;SDS011;62475;52.192;5.396;2023-09-30T02:28:38;15.20;;;6.90;;
74124;SDS011;62475;52.192;5.396;2023-09-30T02:31:03;17.27;;;6.00;;
74124;SDS011;62475;52.192;5.396;2023-09-30T02:33:28;15.73;;;6.47;;
74124;SDS011;62475;52.192;5.396;2023-09-30T02:35:53;10.45;;;6.03;;
74124;SDS011;62475;52.192;5.396;2023-09-30T02:38:19;13.88;;;5.97;;
74124;SDS011;62475;52.192;5.396;2023-09-30T02:40:48;14.35;;;6.82;;
74124;SDS011;62475;52.192;5.396;2023-09-30T02:43:13;17.42;;;7.15;;
74124;SDS011;62475;52.192;5.396;2023-09-30T02:45:39;17.95;;;6.80;;
74124;SDS011;62475;52.192;5.396;2023-09-30T02:48:04;16.90;;;7.00;;
74124;SDS011;62475;52.192;5.396;2023-09-30T02:50:29;16.33;;;7.57;;
74124;SDS011;62475;52.192;5.396;2023-09-30T02:52:55;20.50;;;7.60;;
74124;SDS011;62475;52.192;5.396;2023-09-30T02:55:20;16.20;;;7.17;;
74124;SDS011;62475;52.192;5.396;2023-09-30T02:57:45;17.20;;;8.10;;
74124;SDS011;62475;52.192;5.396;2023-09-30T03:00:11;26.00;;;8.48;;
74124;SDS011;62475;52.192;5.396;2023-09-30T03:02:59;25.48;;;8.38;;
74124;SDS011;62475;52.192;5.396;2023-09-30T03:05:24;20.35;;;8.23;;
74124;SDS011;62475;52.192;5.396;2023-09-30T03:07:49;26.87;;;9.47;;
74124;SDS011;62475;52.192;5.396;2023-09-30T03:10:15;21.02;;;9.05;;
74124;SDS011;62475;52.192;5.396;2023-09-30T03:12:45;18.45;;;8.10;;
74124;SDS011;62475;52.192;5.396;2023-09-30T03:15:10;21.38;;;8.65;;
74124;SDS011;62475;52.192;5.396;2023-09-30T03:17:35;18.67;;;10.27;;
74124;SDS011;62475;52.192;5.396;2023-09-30T03:20:02;25.67;;;9.75;;
74124;SDS011;62475;52.192;5.396;2023-09-30T03:22:33;22.13;;;9.77;;
74124;SDS011;62475;52.192;5.396;2023-09-30T03:24:59;21.57;;;9.50;;
74124;SDS011;62475;52.192;5.396;2023-09-30T03:27:25;21.10;;;9.52;;
74124;SDS011;62475;52.192;5.396;2023-09-30T03:29:51;19.77;;;9.55;;
74124;SDS011;62475;52.192;5.396;2023-09-30T03:32:16;20.30;;;9.60;;
74124;SDS011;62475;52.192;5.396;2023-09-30T03:34:42;20.77;;;9.87;;
74124;SDS011;62475;52.192;5.396;2023-09-30T03:37:12;19.92;;;10.32;;
74124;SDS011;62475;52.192;5.396;2023-09-30T03:39:37;26.45;;;9.32;;
74124;SDS011;62475;52.192;5.396;2023-09-30T03:42:03;21.75;;;9.52;;
74124;SDS011;62475;52.192;5.396;2023-09-30T03:44:29;19.75;;;9.40;;
74124;SDS011;62475;52.192;5.396;2023-09-30T03:46:55;22.27;;;9.43;;
74124;SDS011;62475;52.192;5.396;2023-09-30T03:49:21;22.65;;;9.45;;
74124;SDS011;62475;52.192;5.396;2023-09-30T03:51:47;26.30;;;11.27;;
74124;SDS011;62475;52.192;5.396;2023-09-30T03:54:12;22.63;;;10.83;;
74124;SDS011;62475;52.192;5.396;2023-09-30T03:56:37;17.30;;;9.73;;
74124;SDS011;62475;52.192;5.396;2023-09-30T03:59:06;22.13;;;9.13;;
74124;SDS011;62475;52.192;5.396;2023-09-30T04:01:33;20.33;;;9.85;;
74124;SDS011;62475;52.192;5.396;2023-09-30T04:03:59;18.77;;;9.65;;
74124;SDS011;62475;52.192;5.396;2023-09-30T04:06:24;24.93;;;11.67;;
74124;SDS011;62475;52.192;5.396;2023-09-30T04:08:49;27.57;;;10.87;;
74124;SDS011;62475;52.192;5.396;2023-09-30T04:11:15;24.25;;;11.27;;
74124;SDS011;62475;52.192;5.396;2023-09-30T04:13:46;22.05;;;10.63;;
74124;SDS011;62475;52.192;5.396;2023-09-30T04:16:11;25.38;;;11.70;;
74124;SDS011;62475;52.192;5.396;2023-09-30T04:18:36;23.63;;;11.43;;
74124;SDS011;62475;52.192;5.396;2023-09-30T04:21:03;21.58;;;10.48;;
74124;SDS011;62475;52.192;5.396;2023-09-30T04:23:28;21.00;;;10.80;;
74124;SDS011;62475;52.192;5.396;2023-09-30T04:25:53;21.43;;;10.90;;
74124;SDS011;62475;52.192;5.396;2023-09-30T04:28:19;25.73;;;10.55;;
74124;SDS011;62475;52.192;5.396;2023-09-30T04:30:46;27.05;;;12.35;;
74124;SDS011;62475;52.192;5.396;2023-09-30T04:33:12;19.65;;;10.60;;
74124;SDS011;62475;52.192;5.396;2023-09-30T04:35:39;22.35;;;11.32;;
74124;SDS011;62475;52.192;5.396;2023-09-30T04:38:04;20.63;;;11.47;;
74124;SDS011;62475;52.192;5.396;2023-09-30T04:40:29;24.58;;;11.63;;
74124;SDS011;62475;52.192;5.396;2023-09-30T04:42:55;26.25;;;12.32;;
74124;SDS011;62475;52.192;5.396;2023-09-30T04:45:23;24.48;;;12.10;;
74124;SDS011;62475;52.192;5.396;2023-09-30T04:47:49;27.42;;;12.18;;
74124;SDS011;62475;52.192;5.396;2023-09-30T04:50:15;25.05;;;12.95;;
74124;SDS011;62475;52.192;5.396;2023-09-30T04:52:41;27.08;;;13.05;;
74124;SDS011;62475;52.192;5.396;2023-09-30T04:55:06;29.07;;;13.23;;
74124;SDS011;62475;52.192;5.396;2023-09-30T04:57:31;25.10;;;13.07;;
74124;SDS011;62475;52.192;5.396;2023-09-30T04:59:56;29.73;;;13.53;;
74124;SDS011;62475;52.192;5.396;2023-09-30T05:02:22;23.65;;;12.52;;
74124;SDS011;62475;52.192;5.396;2023-09-30T05:04:47;31.42;;;13.38;;
74124;SDS011;62475;52.192;5.396;2023-09-30T05:07:13;31.10;;;14.85;;
74124;SDS011;62475;52.192;5.396;2023-09-30T05:09:38;25.87;;;13.33;;
74124;SDS011;62475;52.192;5.396;2023-09-30T05:12:04;24.95;;;13.63;;
74124;SDS011;62475;52.192;5.396;2023-09-30T05:14:29;29.90;;;13.75;;
74124;SDS011;62475;52.192;5.396;2023-09-30T05:16:54;30.73;;;13.95;;
74124;SDS011;62475;52.192;5.396;2023-09-30T05:19:21;28.75;;;13.77;;
74124;SDS011;62475;52.192;5.396;2023-09-30T05:21:46;28.87;;;14.90;;
74124;SDS011;62475;52.192;5.396;2023-09-30T05:24:12;30.75;;;14.02;;
74124;SDS011;62475;52.192;5.396;2023-09-30T05:26:37;31.55;;;13.63;;
74124;SDS011;62475;52.192;5.396;2023-09-30T05:29:02;34.40;;;14.10;;
74124;SDS011;62475;52.192;5.396;2023-09-30T05:31:28;26.42;;;13.35;;
74124;SDS011;62475;52.192;5.396;2023-09-30T05:33:54;30.17;;;14.18;;
74124;SDS011;62475;52.192;5.396;2023-09-30T05:36:20;31.52;;;15.65;;
74124;SDS011;62475;52.192;5.396;2023-09-30T05:38:45;28.23;;;14.53;;
74124;SDS011;62475;52.192;5.396;2023-09-30T05:41:10;29.73;;;14.70;;
74124;SDS011;62475;52.192;5.396;2023-09-30T05:43:37;25.77;;;14.90;;
74124;SDS011;62475;52.192;5.396;2023-09-30T05:46:03;28.47;;;15.20;;
74124;SDS011;62475;52.192;5.396;2023-09-30T05:48:29;35.78;;;16.42;;
74124;SDS011;62475;52.192;5.396;2023-09-30T05:50:55;31.50;;;15.90;;
74124;SDS011;62475;52.192;5.396;2023-09-30T05:53:20;31.60;;;15.30;;
74124;SDS011;62475;52.192;5.396;2023-09-30T05:55:46;39.03;;;16.92;;
74124;SDS011;62475;52.192;5.396;2023-09-30T05:58:12;32.50;;;16.30;;
74124;SDS011;62475;52.192;5.396;2023-09-30T06:00:38;27.63;;;15.50;;
74124;SDS011;62475;52.192;5.396;2023-09-30T06:03:05;36.50;;;16.65;;
74124;SDS011;62475;52.192;5.396;2023-09-30T06:05:31;36.22;;;17.65;;
74124;SDS011;62475;52.192;5.396;2023-09-30T06:07:57;34.67;;;16.58;;
74124;SDS011;62475;52.192;5.396;2023-09-30T06:10:22;33.63;;;17.08;;
74124;SDS011;62475;52.192;5.396;2023-09-30T06:12:48;36.88;;;17.55;;
74124;SDS011;62475;52.192;5.396;2023-09-30T06:15:14;32.30;;;16.45;;
74124;SDS011;62475;52.192;5.396;2023-09-30T06:17:40;30.63;;;14.43;;
74124;SDS011;62475;52.192;5.396;2023-09-30T06:20:07;29.17;;;15.05;;
74124;SDS011;62475;52.192;5.396;2023-09-30T06:22:34;30.08;;;15.50;;
74124;SDS011;62475;52.192;5.396;2023-09-30T06:24:59;30.80;;;15.07;;
74124;SDS011;62475;52.192;5.396;2023-09-30T06:27:24;31.50;;;15.03;;
74124;SDS011;62475;52.192;5.396;2023-09-30T06:29:49;26.83;;;14.03;;
74124;SDS011;62475;52.192;5.396;2023-09-30T06:32:14;24.43;;;13.07;;
74124;SDS011;62475;52.192;5.396;2023-09-30T06:34:40;25.02;;;14.50;;
74124;SDS011;62475;52.192;5.396;2023-09-30T06:37:05;28.50;;;12.90;;
74124;SDS011;62475;52.192;5.396;2023-09-30T06:39:30;26.37;;;12.97;;
74124;SDS011;62475;52.192;5.396;2023-09-30T06:41:56;21.63;;;12.47;;
74124;SDS011;62475;52.192;5.396;2023-09-30T06:44:21;26.70;;;12.80;;
74124;SDS011;62475;52.192;5.396;2023-09-30T06:46:49;29.13;;;14.20;;
74124;SDS011;62475;52.192;5.396;2023-09-30T06:49:15;28.35;;;13.90;;
74124;SDS011;62475;52.192;5.396;2023-09-30T06:51:40;27.90;;;12.90;;
74124;SDS011;62475;52.192;5.396;2023-09-30T06:54:05;31.93;;;14.20;;
74124;SDS011;62475;52.192;5.396;2023-09-30T06:56:34;25.77;;;14.02;;
74124;SDS011;62475;52.192;5.396;2023-09-30T06:58:59;23.60;;;13.67;;
74124;SDS011;62475;52.192;5.396;2023-09-30T07:01:24;25.70;;;14.48;;
74124;SDS011;62475;52.192;5.396;2023-09-30T07:03:49;23.57;;;13.50;;
74124;SDS011;62475;52.192;5.396;2023-09-30T07:06:21;26.43;;;13.70;;
74124;SDS011;62475;52.192;5.396;2023-09-30T07:08:46;25.15;;;13.82;;
74124;SDS011;62475;52.192;5.396;2023-09-30T07:11:11;25.00;;;14.23;;
74124;SDS011;62475;52.192;5.396;2023-09-30T07:13:37;24.63;;;14.23;;
74124;SDS011;62475;52.192;5.396;2023-09-30T07:16:02;26.37;;;14.57;;
74124;SDS011;62475;52.192;5.396;2023-09-30T07:18:27;25.30;;;13.25;;
74124;SDS011;62475;52.192;5.396;2023-09-30T07:20:54;29.10;;;13.90;;
74124;SDS011;62475;52.192;5.396;2023-09-30T07:23:19;25.30;;;13.50;;
74124;SDS011;62475;52.192;5.396;2023-09-30T07:25:44;25.07;;;13.50;;
74124;SDS011;62475;52.192;5.396;2023-09-30T07:28:09;20.00;;;12.30;;
74124;SDS011;62475;52.192;5.396;2023-09-30T07:30:36;25.40;;;13.45;;
74124;SDS011;62475;52.192;5.396;2023-09-30T07:33:02;20.30;;;11.70;;
74124;SDS011;62475;52.192;5.396;2023-09-30T07:35:27;21.92;;;12.40;;
74124;SDS011;62475;52.192;5.396;2023-09-30T07:37:52;22.13;;;12.30;;
74124;SDS011;62475;52.192;5.396;2023-09-30T07:40:18;22.73;;;11.85;;
74124;SDS011;62475;52.192;5.396;2023-09-30T07:42:43;17.95;;;10.57;;
74124;SDS011;62475;52.192;5.396;2023-09-30T07:45:11;18.02;;;10.02;;
74124;SDS011;62475;52.192;5.396;2023-09-30T07:47:41;20.75;;;10.43;;
74124;SDS011;62475;52.192;5.396;2023-09-30T07:50:07;18.77;;;9.80;;
74124;SDS011;62475;52.192;5.396;2023-09-30T07:52:34;16.08;;;9.07;;
74124;SDS011;62475;52.192;5.396;2023-09-30T07:54:59;13.23;;;7.90;;
74124;SDS011;62475;52.192;5.396;2023-09-30T07:57:25;16.33;;;8.02;;
74124;SDS011;62475;52.192;5.396;2023-09-30T07:59:52;13.82;;;8.57;;
74124;SDS011;62475;52.192;5.396;2023-09-30T08:02:17;16.27;;;8.63;;
74124;SDS011;62475;52.192;5.396;2023-09-30T08:04:43;15.15;;;7.38;;
74124;SDS011;62475;52.192;5.396;2023-09-30T08:07:08;13.63;;;6.95;;
74124;SDS011;62475;52.192;5.396;2023-09-30T08:09:34;17.15;;;7.97;;
74124;SDS011;62475;52.192;5.396;2023-09-30T08:11:59;15.43;;;8.30;;
74124;SDS011;62475;52.192;5.396;2023-09-30T08:14:24;13.10;;;7.37;;
74124;SDS011;62475;52.192;5.396;2023-09-30T08:16:50;12.52;;;7.07;;
74124;SDS011;62475;52.192;5.396;2023-09-30T08:19:15;14.20;;;6.88;;
74124;SDS011;62475;52.192;5.396;2023-09-30T08:21:41;9.80;;;6.13;;
74124;SDS011;62475;52.192;5.396;2023-09-30T08:24:06;17.07;;;6.63;;
74124;SDS011;62475;52.192;5.396;2023-09-30T08:26:31;13.32;;;6.90;;
74124;SDS011;62475;52.192;5.396;2023-09-30T08:28:58;12.18;;;5.97;;
74124;SDS011;62475;52.192;5.396;2023-09-30T08:31:23;11.70;;;5.63;;
74124;SDS011;62475;52.192;5.396;2023-09-30T08:33:49;11.45;;;5.72;;
74124;SDS011;62475;52.192;5.396;2023-09-30T08:36:14;15.97;;;6.10;;
74124;SDS011;62475;52.192;5.396;2023-09-30T08:38:40;15.70;;;5.73;;
74124;SDS011;62475;52.192;5.396;2023-09-30T08:41:05;10.13;;;5.50;;
74124;SDS011;62475;52.192;5.396;2023-09-30T08:43:32;10.35;;;5.53;;
74124;SDS011;62475;52.192;5.396;2023-09-30T08:46:01;11.27;;;5.38;;
74124;SDS011;62475;52.192;5.396;2023-09-30T08:48:27;14.88;;;6.38;;
74124;SDS011;62475;52.192;5.396;2023-09-30T08:50:53;12.98;;;5.88;;
74124;SDS011;62475;52.192;5.396;2023-09-30T08:53:22;13.23;;;5.88;;
74124;SDS011;62475;52.192;5.396;2023-09-30T08:55:48;13.75;;;6.38;;
74124;SDS011;62475;52.192;5.396;2023-09-30T08:58:16;10.35;;;5.72;;
74124;SDS011;62475;52.192;5.396;2023-09-30T09:00:42;12.43;;;5.72;;
74124;SDS011;62475;52.192;5.396;2023-09-30T09:03:07;10.93;;;5.72;;
74124;SDS011;62475;52.192;5.396;2023-09-30T09:05:32;12.30;;;6.70;;
74124;SDS011;62475;52.192;5.396;2023-09-30T09:07:58;11.73;;;5.53;;
74124;SDS011;62475;52.192;5.396;2023-09-30T09:10:23;11.43;;;5.07;;
74124;SDS011;62475;52.192;5.396;2023-09-30T09:12:56;11.90;;;4.90;;
74124;SDS011;62475;52.192;5.396;2023-09-30T09:15:27;11.38;;;4.95;;
74124;SDS011;62475;52.192;5.396;2023-09-30T09:17:55;10.75;;;4.90;;
74124;SDS011;62475;52.192;5.396;2023-09-30T09:20:22;9.98;;;4.75;;
74124;SDS011;62475;52.192;5.396;2023-09-30T09:22:51;7.65;;;3.80;;
74124;SDS011;62475;52.192;5.396;2023-09-30T09:25:18;9.50;;;4.15;;
74124;SDS011;62475;52.192;5.396;2023-09-30T09:27:44;9.65;;;3.95;;
74124;SDS011;62475;52.192;5.396;2023-09-30T09:33:02;9.65;;;3.55;;
74124;SDS011;62475;52.192;5.396;2023-09-30T09:35:26;8.25;;;3.67;;
74124;SDS011;62475;52.192;5.396;2023-09-30T09:38:07;8.63;;;3.28;;
74124;SDS011;62475;52.192;5.396;2023-09-30T09:42:58;8.80;;;3.70;;
74124;SDS011;62475;52.192;5.396;2023-09-30T09:45:25;12.63;;;3.83;;
74124;SDS011;62475;52.192;5.396;2023-09-30T09:47:50;12.38;;;3.65;;
74124;SDS011;62475;52.192;5.396;2023-09-30T09:50:17;7.20;;;3.42;;
74124;SDS011;62475;52.192;5.396;2023-09-30T09:52:42;6.47;;;3.50;;
74124;SDS011;62475;52.192;5.396;2023-09-30T09:55:10;9.52;;;2.80;;
74124;SDS011;62475;52.192;5.396;2023-09-30T09:57:35;8.73;;;2.65;;
74124;SDS011;62475;52.192;5.396;2023-09-30T10:00:00;5.90;;;2.60;;
74124;SDS011;62475;52.192;5.396;2023-09-30T10:02:30;5.60;;;2.83;;
74124;SDS011;62475;52.192;5.396;2023-09-30T10:04:55;6.95;;;3.00;;
74124;SDS011;62475;52.192;5.396;2023-09-30T10:07:21;9.30;;;2.95;;
74124;SDS011;62475;52.192;5.396;2023-09-30T10:09:47;9.68;;;3.00;;
74124;SDS011;62475;52.192;5.396;2023-09-30T10:12:15;9.77;;;3.42;;
74124;SDS011;62475;52.192;5.396;2023-09-30T10:14:40;6.65;;;2.85;;
74124;SDS011;62475;52.192;5.396;2023-09-30T10:17:05;6.50;;;2.70;;
74124;SDS011;62475;52.192;5.396;2023-09-30T10:19:30;14.15;;;3.65;;
74124;SDS011;62475;52.192;5.396;2023-09-30T10:24:41;6.93;;;2.85;;
74124;SDS011;62475;52.192;5.396;2023-09-30T10:29:48;7.30;;;2.20;;
74124;SDS011;62475;52.192;5.396;2023-09-30T10:32:15;9.15;;;1.95;;
74124;SDS011;62475;52.192;5.396;2023-09-30T10:34:47;11.40;;;2.50;;
74124;SDS011;62475;52.192;5.396;2023-09-30T10:37:22;11.25;;;2.65;;
74124;SDS011;62475;52.192;5.396;2023-09-30T10:39:54;7.97;;;2.35;;
74124;SDS011;62475;52.192;5.396;2023-09-30T10:45:04;8.93;;;2.25;;
74124;SDS011;62475;52.192;5.396;2023-09-30T10:49:58;6.68;;;2.30;;
74124;SDS011;62475;52.192;5.396;2023-09-30T10:52:23;12.37;;;2.50;;
74124;SDS011;62475;52.192;5.396;2023-09-30T10:54:51;9.43;;;2.42;;
74124;SDS011;62475;52.192;5.396;2023-09-30T10:57:26;13.35;;;2.30;;
74124;SDS011;62475;52.192;5.396;2023-09-30T11:00:10;8.85;;;2.50;;
74124;SDS011;62475;52.192;5.396;2023-09-30T11:05:10;9.00;;;2.40;;
74124;SDS011;62475;52.192;5.396;2023-09-30T11:07:35;6.38;;;2.40;;
74124;SDS011;62475;52.192;5.396;2023-09-30T11:10:02;8.23;;;2.60;;
74124;SDS011;62475;52.192;5.396;2023-09-30T11:12:27;6.50;;;2.13;;
74124;SDS011;62475;52.192;5.396;2023-09-30T11:14:59;7.03;;;2.13;;
74124;SDS011;62475;52.192;5.396;2023-09-30T11:17:26;6.78;;;1.95;;
74124;SDS011;62475;52.192;5.396;2023-09-30T11:19:51;6.78;;;1.90;;
74124;SDS011;62475;52.192;5.396;2023-09-30T11:22:17;8.73;;;1.90;;
74124;SDS011;62475;52.192;5.396;2023-09-30T11:24:42;6.63;;;1.75;;
74124;SDS011;62475;52.192;5.396;2023-09-30T11:27:08;9.03;;;1.70;;
74124;SDS011;62475;52.192;5.396;2023-09-30T11:29:34;4.35;;;1.30;;
74124;SDS011;62475;52.192;5.396;2023-09-30T11:31:59;9.07;;;1.47;;
74124;SDS011;62475;52.192;5.396;2023-09-30T11:34:36;6.63;;;1.95;;
74124;SDS011;62475;52.192;5.396;2023-09-30T11:37:01;6.72;;;1.70;;
74124;SDS011;62475;52.192;5.396;2023-09-30T11:39:27;3.78;;;1.58;;
74124;SDS011;62475;52.192;5.396;2023-09-30T11:41:53;7.25;;;1.30;;
74124;SDS011;62475;52.192;5.396;2023-09-30T11:44:20;7.43;;;1.55;;
74124;SDS011;62475;52.192;5.396;2023-09-30T11:46:48;8.30;;;1.40;;
74124;SDS011;62475;52.192;5.396;2023-09-30T11:49:23;9.57;;;1.45;;
74124;SDS011;62475;52.192;5.396;2023-09-30T11:51:49;11.50;;;1.88;;
74124;SDS011;62475;52.192;5.396;2023-09-30T11:54:14;11.50;;;2.63;;
74124;SDS011;62475;52.192;5.396;2023-09-30T11:56:39;3.63;;;1.30;;
74124;SDS011;62475;52.192;5.396;2023-09-30T11:59:04;7.57;;;1.85;;
74124;SDS011;62475;52.192;5.396;2023-09-30T12:01:30;6.60;;;1.67;;
74124;SDS011;62475;52.192;5.396;2023-09-30T12:03:57;5.88;;;1.92;;
74124;SDS011;62475;52.192;5.396;2023-09-30T12:06:22;7.28;;;2.45;;
74124;SDS011;62475;52.192;5.396;2023-09-30T12:08:47;8.32;;;2.85;;
74124;SDS011;62475;52.192;5.396;2023-09-30T12:11:13;5.63;;;1.50;;
74124;SDS011;62475;52.192;5.396;2023-09-30T12:13:40;4.72;;;1.50;;
74124;SDS011;62475;52.192;5.396;2023-09-30T12:16:06;7.53;;;2.05;;
74124;SDS011;62475;52.192;5.396;2023-09-30T12:18:32;6.68;;;1.77;;
74124;SDS011;62475;52.192;5.396;2023-09-30T12:20:57;4.37;;;1.50;;
74124;SDS011;62475;52.192;5.396;2023-09-30T12:23:22;5.90;;;1.60;;
74124;SDS011;62475;52.192;5.396;2023-09-30T12:25:47;6.33;;;1.60;;
74124;SDS011;62475;52.192;5.396;2023-09-30T12:28:13;5.32;;;1.33;;
74124;SDS011;62475;52.192;5.396;2023-09-30T12:30:42;6.63;;;1.70;;
74124;SDS011;62475;52.192;5.396;2023-09-30T12:33:08;7.05;;;1.63;;
74124;SDS011;62475;52.192;5.396;2023-09-30T12:35:33;5.30;;;1.67;;
74124;SDS011;62475;52.192;5.396;2023-09-30T12:37:59;7.50;;;1.43;;
74124;SDS011;62475;52.192;5.396;2023-09-30T12:40:26;4.80;;;1.60;;
74124;SDS011;62475;52.192;5.396;2023-09-30T12:42:52;8.90;;;2.80;;
74124;SDS011;62475;52.192;5.396;2023-09-30T12:45:17;4.80;;;1.80;;
74124;SDS011;62475;52.192;5.396;2023-09-30T12:47:43;6.95;;;1.60;;
74124;SDS011;62475;52.192;5.396;2023-09-30T12:50:08;6.72;;;2.40;;
74124;SDS011;62475;52.192;5.396;2023-09-30T12:52:34;4.45;;;1.75;;
74124;SDS011;62475;52.192;5.396;2023-09-30T12:54:59;4.50;;;1.38;;
74124;SDS011;62475;52.192;5.396;2023-09-30T12:57:24;6.43;;;1.73;;
74124;SDS011;62475;52.192;5.396;2023-09-30T12:59:49;6.20;;;1.40;;
74124;SDS011;62475;52.192;5.396;2023-09-30T13:02:15;6.60;;;1.90;;
74124;SDS011;62475;52.192;5.396;2023-09-30T13:04:40;6.55;;;1.58;;
74124;SDS011;62475;52.192;5.396;2023-09-30T13:07:11;5.72;;;1.52;;
74124;SDS011;62475;52.192;5.396;2023-09-30T13:09:37;6.32;;;1.67;;
74124;SDS011;62475;52.192;5.396;2023-09-30T13:12:03;5.97;;;1.70;;
74124;SDS011;62475;52.192;5.396;2023-09-30T13:14:28;4.13;;;1.58;;
74124;SDS011;62475;52.192;5.396;2023-09-30T13:16:53;6.97;;;2.00;;
74124;SDS011;62475;52.192;5.396;2023-09-30T13:19:19;7.83;;;2.10;;
74124;SDS011;62475;52.192;5.396;2023-09-30T13:21:46;4.43;;;1.88;;
74124;SDS011;62475;52.192;5.396;2023-09-30T13:24:11;5.85;;;1.48;;
74124;SDS011;62475;52.192;5.396;2023-09-30T13:26:37;5.63;;;1.55;;
74124;SDS011;62475;52.192;5.396;2023-09-30T13:29:02;6.43;;;1.60;;
74124;SDS011;62475;52.192;5.396;2023-09-30T13:31:30;6.43;;;1.70;;
74124;SDS011;62475;52.192;5.396;2023-09-30T13:33:58;5.53;;;1.65;;
74124;SDS011;62475;52.192;5.396;2023-09-30T13:36:23;6.72;;;1.70;;
74124;SDS011;62475;52.192;5.396;2023-09-30T13:38:48;9.27;;;1.87;;
74124;SDS011;62475;52.192;5.396;2023-09-30T13:41:14;5.40;;;1.77;;
74124;SDS011;62475;52.192;5.396;2023-09-30T13:43:40;5.75;;;1.88;;
74124;SDS011;62475;52.192;5.396;2023-09-30T13:46:05;6.20;;;1.60;;
74124;SDS011;62475;52.192;5.396;2023-09-30T13:48:32;10.63;;;2.25;;
74124;SDS011;62475;52.192;5.396;2023-09-30T13:51:03;7.88;;;2.30;;
74124;SDS011;62475;52.192;5.396;2023-09-30T13:53:29;6.07;;;2.25;;
74124;SDS011;62475;52.192;5.396;2023-09-30T13:55:54;8.03;;;2.20;;
74124;SDS011;62475;52.192;5.396;2023-09-30T13:58:19;7.67;;;2.10;;
74124;SDS011;62475;52.192;5.396;2023-09-30T14:00:47;9.67;;;2.20;;
74124;SDS011;62475;52.192;5.396;2023-09-30T14:03:13;8.32;;;1.80;;
74124;SDS011;62475;52.192;5.396;2023-09-30T14:05:38;5.90;;;1.97;;
74124;SDS011;62475;52.192;5.396;2023-09-30T14:08:04;7.05;;;2.25;;
74124;SDS011;62475;52.192;5.396;2023-09-30T14:10:31;6.78;;;2.10;;
74124;SDS011;62475;52.192;5.396;2023-09-30T14:12:56;8.40;;;2.10;;
74124;SDS011;62475;52.192;5.396;2023-09-30T14:15:22;7.40;;;1.70;;
74124;SDS011;62475;52.192;5.396;2023-09-30T14:17:47;7.60;;;2.38;;
74124;SDS011;62475;52.192;5.396;2023-09-30T14:20:13;6.07;;;2.30;;
74124;SDS011;62475;52.192;5.396;2023-09-30T14:22:38;6.70;;;1.93;;
74124;SDS011;62475;52.192;5.396;2023-09-30T14:25:03;9.27;;;2.07;;
74124;SDS011;62475;52.192;5.396;2023-09-30T14:27:28;5.78;;;1.55;;
74124;SDS011;62475;52.192;5.396;2023-09-30T14:29:57;5.22;;;1.42;;
74124;SDS011;62475;52.192;5.396;2023-09-30T14:32:23;10.20;;;2.20;;
74124;SDS011;62475;52.192;5.396;2023-09-30T14:34:48;8.77;;;2.10;;
74124;SDS011;62475;52.192;5.396;2023-09-30T14:37:13;5.63;;;1.90;;
74124;SDS011;62475;52.192;5.396;2023-09-30T14:39:38;7.03;;;2.08;;
74124;SDS011;62475;52.192;5.396;2023-09-30T14:42:03;11.23;;;2.20;;
74124;SDS011;62475;52.192;5.396;2023-09-30T14:44:29;5.53;;;1.70;;
74124;SDS011;62475;52.192;5.396;2023-09-30T14:46:54;10.80;;;2.27;;